Time;durP1;ratioP1;P1;durP2;ratioP2;P2;SDS_P1;SDS_P2;PMS_P1;PMS_P2;Temp;Humidity;BMP_temperature;BMP_pressure;BME280_temperature;BME280_humidity;BME280_pressure;Samples;Min_cycle;Max_cycle;Signal;HPM_P1;HPM_P2
2022/08/08 00:01:55;;;;;;;10.10;8.27;;;13.90;99.90;;;;;;5010299;28;20057;-77
2022/08/08 00:04:47;;;;;;;15.98;9.48;;;13.90;99.90;;;;;;4992245;28;20189;-78
2022/08/08 00:07:50;;;;;;;10.55;8.27;;;13.80;99.90;;;;;;5011014;28;20050;-78
2022/08/08 00:10:40;;;;;;;8.63;6.97;;;13.70;99.90;;;;;;5014525;28;20042;-78
2022/08/08 00:13:29;;;;;;;8.25;6.88;;;13.60;99.90;;;;;;5011952;28;20073;-78
2022/08/08 00:16:09;;;;;;;8.07;6.80;;;13.60;99.90;;;;;;5007005;28;20531;-78
2022/08/08 00:18:46;;;;;;;11.13;5.13;;;13.50;99.90;;;;;;5006245;28;20467;-78
2022/08/08 00:21:20;;;;;;;6.93;5.05;;;13.50;99.90;;;;;;4996168;28;20388;-78
2022/08/08 00:24:01;;;;;;;8.60;4.90;;;13.50;99.90;;;;;;5007587;28;20062;-77
2022/08/08 00:26:36;;;;;;;7.43;4.22;;;13.50;99.90;;;;;;5007897;28;20050;-79
2022/08/08 00:29:16;;;;;;;6.72;4.10;;;13.50;99.90;;;;;;5017649;28;20065;-79
2022/08/08 00:31:47;;;;;;;6.45;4.30;;;13.60;99.90;;;;;;5006609;28;20058;-79
2022/08/08 00:37:41;;;;;;;6.23;4.17;;;13.50;99.90;;;;;;5010942;28;20111;-79
2022/08/08 00:40:29;;;;;;;5.93;4.55;;;13.50;99.90;;;;;;4999598;28;20566;-79
2022/08/08 00:43:07;;;;;;;8.10;6.75;;;13.50;99.90;;;;;;5010520;28;20064;-80
2022/08/08 00:45:57;;;;;;;8.30;5.75;;;13.40;99.90;;;;;;5010128;28;20045;-79
2022/08/08 00:48:26;;;;;;;;;;;13.30;99.90;;;;;;5026042;28;20515;-79
2022/08/08 00:51:29;;;;;;;4.63;3.83;;;13.20;99.90;;;;;;4990884;28;19925;-80
2022/08/08 00:54:25;;;;;;;10.15;6.95;;;13.20;99.90;;;;;;5009447;28;20046;-79
2022/08/08 00:57:13;;;;;;;5.63;4.50;;;13.20;99.90;;;;;;5009129;28;20457;-79
2022/08/08 01:00:03;;;;;;;6.80;5.25;;;13.10;99.90;;;;;;5028542;28;20037;-79
2022/08/08 01:02:51;;;;;;;8.55;6.65;;;13.10;99.90;;;;;;5031723;28;20054;-80
2022/08/08 01:05:45;;;;;;;11.73;9.18;;;13.10;99.90;;;;;;5013654;28;20054;-79
2022/08/08 01:08:13;;;;;;;6.10;5.13;;;13.10;99.90;;;;;;5015225;28;20909;-79
2022/08/08 01:11:01;;;;;;;8.85;6.65;;;13.00;99.90;;;;;;5019594;28;20065;-79
2022/08/08 01:13:42;;;;;;;10.63;8.48;;;13.00;99.90;;;;;;4999053;28;20519;-79
2022/08/08 01:16:37;;;;;;;10.32;7.85;;;13.00;99.90;;;;;;5013510;28;20152;-79
2022/08/08 01:19:24;;;;;;;6.25;5.32;;;12.90;99.90;;;;;;5014196;28;20115;-80
2022/08/08 01:22:13;;;;;;;6.53;5.43;;;12.90;99.90;;;;;;5008387;28;20060;-79
2022/08/08 01:25:05;;;;;;;10.25;8.40;;;12.90;99.90;;;;;;4977187;28;20080;-80
2022/08/08 01:27:58;;;;;;;6.47;5.70;;;12.90;99.90;;;;;;5017602;28;20068;-80
2022/08/08 01:30:51;;;;;;;7.75;6.95;;;12.80;99.90;;;;;;5018932;28;20053;-80
2022/08/08 01:33:57;;;;;;;10.45;9.25;;;12.90;99.90;;;;;;5014851;28;20033;-80
2022/08/08 01:36:47;;;;;;;7.82;5.60;;;12.80;99.90;;;;;;5043115;28;20069;-80
2022/08/08 01:39:51;;;;;;;7.30;6.60;;;12.80;99.90;;;;;;5014460;28;20054;-80
2022/08/08 01:42:44;;;;;;;7.15;6.47;;;12.70;99.90;;;;;;5014319;28;20080;-80
2022/08/08 01:45:40;;;;;;;5.38;4.82;;;12.70;99.90;;;;;;4997342;28;20500;-80
2022/08/08 01:48:29;;;;;;;5.20;4.57;;;12.70;99.90;;;;;;5016302;28;20064;-79
2022/08/08 01:51:17;;;;;;;5.30;4.80;;;12.70;99.90;;;;;;5014407;28;20053;-80
2022/08/08 01:54:14;;;;;;;6.63;5.68;;;12.60;99.90;;;;;;5008910;28;20042;-79
2022/08/08 01:57:05;;;;;;;9.77;7.70;;;12.70;99.90;;;;;;4971545;28;20045;-80
2022/08/08 01:59:38;;;;;;;8.48;7.65;;;12.70;99.90;;;;;;5014034;28;20042;-80
2022/08/08 02:02:24;;;;;;;6.72;5.45;;;12.60;99.90;;;;;;5016025;28;20052;-80
2022/08/08 02:05:08;;;;;;;6.60;5.45;;;12.50;99.90;;;;;;5021868;28;20041;-80
2022/08/08 02:07:55;;;;;;;5.95;5.38;;;12.50;99.90;;;;;;5020164;28;20053;-79
2022/08/08 02:10:36;;;;;;;7.22;6.00;;;12.50;99.90;;;;;;5037083;28;20531;-79
2022/08/08 02:13:23;;;;;;;6.93;5.20;;;12.50;99.90;;;;;;5022366;28;20059;-80
2022/08/08 02:16:18;;;;;;;5.47;4.75;;;12.50;99.90;;;;;;5000874;28;20132;-80
2022/08/08 02:19:14;;;;;;;5.28;4.78;;;12.60;99.90;;;;;;5015027;28;20061;-80
2022/08/08 02:24:58;;;;;;;9.80;8.45;;;12.60;99.90;;;;;;5036174;28;20058;-80
2022/08/08 02:27:33;;;;;;;12.30;9.30;;;12.50;99.90;;;;;;5017397;28;20052;-80
2022/08/08 02:30:10;;;;;;;9.50;8.60;;;12.40;99.90;;;;;;5019652;28;21085;-80
2022/08/08 02:32:59;;;;;;;12.07;9.60;;;12.40;99.90;;;;;;5020812;28;20041;-80
2022/08/08 02:35:32;;;;;;;11.57;10.35;;;12.40;99.90;;;;;;4998096;28;20539;-80
2022/08/08 02:38:04;;;;;;;6.90;6.30;;;12.30;99.90;;;;;;5011570;28;20046;-80
2022/08/08 02:41:00;;;;;;;12.10;10.77;;;12.30;99.90;;;;;;5017934;28;20050;-80
2022/08/08 02:43:48;;;;;;;9.30;7.90;;;12.30;99.90;;;;;;5008005;28;20397;-79
2022/08/08 02:46:41;;;;;;;7.40;6.70;;;12.30;99.90;;;;;;5006264;28;20119;-80
2022/08/08 02:49:35;;;;;;;6.68;6.07;;;12.20;99.90;;;;;;5009052;28;20460;-80
2022/08/08 02:52:31;;;;;;;8.02;6.32;;;12.30;99.90;;;;;;5010564;28;20046;-80
2022/08/08 02:55:17;;;;;;;6.55;5.90;;;12.30;99.90;;;;;;5017243;28;20045;-80
2022/08/08 02:58:06;;;;;;;6.53;5.93;;;12.30;99.90;;;;;;5017139;28;20049;-80
2022/08/08 03:01:10;;;;;;;6.28;5.65;;;12.30;99.90;;;;;;5024578;28;20045;-80
2022/08/08 03:04:15;;;;;;;5.97;5.38;;;12.30;99.90;;;;;;5020070;28;20104;-80
2022/08/08 03:07:09;;;;;;;6.53;5.85;;;12.30;99.90;;;;;;4973821;28;20258;-80
2022/08/08 03:10:05;;;;;;;6.40;5.47;;;12.20;99.90;;;;;;5019096;28;20034;-80
2022/08/08 03:12:46;;;;;;;11.60;10.43;;;12.20;99.90;;;;;;5009307;28;20141;-80
2022/08/08 03:15:30;;;;;;;11.30;8.85;;;12.30;99.90;;;;;;5000493;28;20041;-80
2022/08/08 03:18:19;;;;;;;10.90;9.73;;;12.10;99.90;;;;;;5011049;28;20135;-80
2022/08/08 03:20:46;;;;;;;9.48;8.27;;;12.10;99.90;;;;;;4983791;28;20581;-80
2022/08/08 03:23:13;;;;;;;7.50;6.70;;;12.00;99.90;;;;;;4992814;28;20057;-80
2022/08/08 03:25:41;;;;;;;6.47;5.72;;;12.00;99.90;;;;;;5014480;28;20527;-80
2022/08/08 03:28:13;;;;;;;7.47;6.40;;;11.90;99.90;;;;;;5016242;28;20390;-80
2022/08/08 03:30:43;;;;;;;5.60;5.10;;;11.90;99.90;;;;;;4999046;28;20128;-80
2022/08/08 03:33:18;;;;;;;6.72;5.40;;;12.00;99.90;;;;;;5013287;28;20057;-80
2022/08/08 03:35:46;;;;;;;6.53;5.40;;;12.00;99.90;;;;;;5013410;28;20046;-80
2022/08/08 03:38:13;;;;;;;6.13;5.47;;;12.00;99.90;;;;;;5011720;28;20064;-80
2022/08/08 03:40:39;;;;;;;6.40;5.43;;;12.00;99.90;;;;;;4992522;28;20080;-80
2022/08/08 03:43:09;;;;;;;6.63;5.57;;;12.00;99.90;;;;;;5015468;28;20120;-80
2022/08/08 03:45:35;;;;;;;5.10;4.60;;;12.10;99.90;;;;;;5009784;28;20050;-80
2022/08/08 03:48:04;;;;;;;5.82;5.22;;;12.00;99.90;;;;;;5012062;28;20064;-80
2022/08/08 03:50:32;;;;;;;5.75;5.10;;;12.00;99.90;;;;;;5012927;28;20814;-80
2022/08/08 03:53:12;;;;;;;5.93;5.30;;;12.00;99.90;;;;;;4988314;28;20148;-80
2022/08/08 03:55:49;;;;;;;7.43;6.32;;;12.00;99.90;;;;;;5007233;28;20081;-80
2022/08/08 03:58:23;;;;;;;13.07;10.10;;;12.00;99.90;;;;;;5004965;28;20052;-80
2022/08/08 04:00:54;;;;;;;11.18;9.95;;;11.90;99.90;;;;;;5011951;28;20288;-80
2022/08/08 04:03:21;;;;;;;12.55;10.70;;;11.90;99.90;;;;;;5015009;28;20046;-81
2022/08/08 04:05:47;;;;;;;6.90;6.20;;;11.80;99.90;;;;;;5009721;28;20543;-80
2022/08/08 04:08:18;;;;;;;6.47;5.88;;;11.80;99.90;;;;;;5011328;28;20091;-80
2022/08/08 04:10:50;;;;;;;7.85;7.05;;;11.80;99.90;;;;;;5014916;28;20049;-80
2022/08/08 04:13:17;;;;;;;11.93;9.85;;;11.70;99.90;;;;;;4992313;28;20048;-80
2022/08/08 04:15:43;;;;;;;12.98;10.52;;;11.70;99.90;;;;;;5014369;28;20187;-80
2022/08/08 04:18:10;;;;;;;7.93;6.22;;;11.70;99.90;;;;;;5010454;28;20258;-80
2022/08/08 04:20:36;;;;;;;13.80;9.75;;;11.60;99.90;;;;;;4995643;28;20058;-80
2022/08/08 04:23:02;;;;;;;7.05;5.65;;;11.60;99.90;;;;;;5013760;28;20060;-80
2022/08/08 04:25:28;;;;;;;12.13;9.45;;;11.60;99.90;;;;;;5019538;28;20480;-81
2022/08/08 04:27:54;;;;;;;11.20;10.10;;;11.60;99.90;;;;;;5005715;28;20051;-80
2022/08/08 04:30:19;;;;;;;12.88;11.32;;;11.60;99.90;;;;;;4988694;28;20119;-81
2022/08/08 04:32:46;;;;;;;10.77;9.18;;;11.60;99.90;;;;;;5009874;28;20054;-80
2022/08/08 04:35:12;;;;;;;6.53;5.93;;;11.60;99.90;;;;;;4996632;28;20046;-80
2022/08/08 04:37:38;;;;;;;8.45;7.65;;;11.60;99.90;;;;;;5000304;28;20041;-81
2022/08/08 04:40:04;;;;;;;11.52;10.23;;;11.60;99.90;;;;;;5011834;28;20415;-81
2022/08/08 04:42:32;;;;;;;11.65;10.45;;;11.60;99.90;;;;;;5008290;28;20038;-80
2022/08/08 04:44:59;;;;;;;10.70;9.60;;;11.60;99.90;;;;;;4992811;28;20747;-81
2022/08/08 04:47:25;;;;;;;15.25;10.20;;;11.60;99.90;;;;;;4976530;28;20079;-81
2022/08/08 04:49:51;;;;;;;6.55;5.50;;;11.60;99.90;;;;;;4994317;28;20066;-81
2022/08/08 04:52:17;;;;;;;6.90;6.00;;;11.60;99.90;;;;;;5010578;28;20041;-80
2022/08/08 04:54:42;;;;;;;8.60;7.25;;;11.60;99.90;;;;;;5013890;28;20123;-80
2022/08/08 04:57:09;;;;;;;6.82;6.20;;;11.70;99.90;;;;;;5015768;28;20046;-80
2022/08/08 04:59:35;;;;;;;7.00;6.30;;;11.70;99.90;;;;;;4995468;28;20093;-80
2022/08/08 05:02:01;;;;;;;7.38;5.75;;;11.70;99.90;;;;;;5008866;28;20129;-80
2022/08/08 05:04:27;;;;;;;9.25;7.15;;;11.80;99.90;;;;;;4996255;28;20121;-81
2022/08/08 05:06:53;;;;;;;6.13;5.53;;;11.90;99.90;;;;;;5014768;28;20072;-80
2022/08/08 05:09:19;;;;;;;6.38;5.72;;;12.00;99.90;;;;;;5009046;28;20050;-80
2022/08/08 05:11:51;;;;;;;11.10;9.00;;;12.00;99.90;;;;;;5000110;28;20057;-81
2022/08/08 05:14:17;;;;;;;10.63;8.70;;;12.10;99.90;;;;;;4998154;28;20056;-80
2022/08/08 05:16:42;;;;;;;11.32;9.48;;;12.10;99.90;;;;;;5014174;28;20415;-81
2022/08/08 05:19:11;;;;;;;9.93;7.57;;;12.20;99.90;;;;;;5005555;28;20058;-81
2022/08/08 05:21:43;;;;;;;11.05;8.77;;;12.20;99.90;;;;;;5016072;28;20061;-81
2022/08/08 05:24:10;;;;;;;11.23;9.88;;;12.30;99.90;;;;;;4999737;28;20080;-80
2022/08/08 05:26:45;;;;;;;10.88;9.77;;;12.30;99.90;;;;;;5007337;28;20061;-78
2022/08/08 05:29:11;;;;;;;12.65;11.35;;;12.30;99.90;;;;;;5005256;28;20053;-78
2022/08/08 05:31:37;;;;;;;11.88;8.57;;;12.40;99.90;;;;;;5010422;28;20075;-78
2022/08/08 05:34:24;;;;;;;9.50;7.75;;;12.50;99.90;;;;;;5006899;28;20042;-78
2022/08/08 05:36:55;;;;;;;13.38;10.60;;;12.50;99.90;;;;;;5012201;28;20087;-78
2022/08/08 05:39:22;;;;;;;10.63;6.75;;;12.60;99.90;;;;;;5010302;28;20072;-78
2022/08/08 05:41:52;;;;;;;11.05;9.73;;;12.70;99.90;;;;;;4972677;28;20559;-81
2022/08/08 05:44:28;;;;;;;9.00;8.10;;;12.70;99.90;;;;;;5012572;28;20132;-81
2022/08/08 05:46:54;;;;;;;11.13;9.60;;;12.90;99.90;;;;;;4989336;28;20060;-81
2022/08/08 05:49:20;;;;;;;13.82;11.77;;;13.00;99.90;;;;;;4998556;28;20123;-81
2022/08/08 05:51:47;;;;;;;9.68;7.80;;;13.00;99.90;;;;;;5007700;28;20054;-81
2022/08/08 05:54:13;;;;;;;10.27;9.07;;;13.10;99.90;;;;;;4992510;28;20267;-81
2022/08/08 05:56:42;;;;;;;12.07;9.35;;;13.20;99.90;;;;;;4986432;28;20053;-81
2022/08/08 05:59:17;;;;;;;9.95;8.35;;;13.30;99.90;;;;;;5007846;28;20453;-81
2022/08/08 06:01:50;;;;;;;11.27;8.73;;;13.40;99.90;;;;;;5012591;28;20046;-81
2022/08/08 06:04:21;;;;;;;10.45;9.40;;;13.50;99.90;;;;;;4996647;28;20045;-81
2022/08/08 06:06:49;;;;;;;10.00;8.32;;;13.60;99.90;;;;;;4995621;28;20117;-81
2022/08/08 06:09:17;;;;;;;10.48;8.90;;;13.70;99.90;;;;;;5009397;28;20111;-80
2022/08/08 06:11:43;;;;;;;9.75;7.30;;;13.80;99.90;;;;;;5010661;28;20196;-80
2022/08/08 06:14:10;;;;;;;11.68;8.63;;;13.90;99.90;;;;;;4989828;28;20108;-81
2022/08/08 06:16:36;;;;;;;14.57;8.40;;;14.00;99.90;;;;;;4975615;28;20073;-81
2022/08/08 06:19:02;;;;;;;10.90;8.60;;;14.10;99.90;;;;;;5001695;28;20085;-81
2022/08/08 06:21:28;;;;;;;11.95;8.65;;;14.20;99.90;;;;;;4986918;28;20440;-81
2022/08/08 06:23:55;;;;;;;13.05;9.07;;;14.30;99.90;;;;;;5003314;28;20056;-81
2022/08/08 06:26:24;;;;;;;10.07;7.00;;;14.40;99.90;;;;;;4988627;28;20056;-81
2022/08/08 06:29:10;;;;;;;9.77;6.47;;;14.50;99.90;;;;;;5012023;28;20045;-81
2022/08/08 06:31:39;;;;;;;11.18;7.85;;;14.60;99.90;;;;;;5014852;28;20042;-80
2022/08/08 06:34:14;;;;;;;9.07;6.50;;;14.80;99.90;;;;;;4983211;28;20048;-80
2022/08/08 06:36:42;;;;;;;9.85;6.32;;;15.00;99.90;;;;;;5010965;28;20089;-80
2022/08/08 06:39:11;;;;;;;9.75;6.45;;;15.10;99.90;;;;;;4992846;28;20067;-80
2022/08/08 06:41:55;;;;;;;9.45;5.80;;;15.40;99.90;;;;;;5009935;28;20057;-80
2022/08/08 06:44:22;;;;;;;11.55;6.05;;;15.60;99.90;;;;;;5007589;28;20140;-80
2022/08/08 06:46:48;;;;;;;9.00;4.50;;;15.80;99.90;;;;;;5014254;28;20064;-79
2022/08/08 06:49:14;;;;;;;7.10;4.32;;;16.00;99.90;;;;;;5018533;28;20508;-80
2022/08/08 06:51:40;;;;;;;7.32;4.90;;;16.20;99.90;;;;;;4983366;28;20055;-80
2022/08/08 06:54:08;;;;;;;8.23;5.57;;;16.40;99.90;;;;;;4998980;28;20041;-80
2022/08/08 06:56:35;;;;;;;9.23;4.45;;;16.60;99.90;;;;;;4995989;28;20140;-80
2022/08/08 06:59:01;;;;;;;9.52;4.22;;;16.70;99.90;;;;;;5009394;28;20616;-80
2022/08/08 07:01:36;;;;;;;7.20;3.47;;;16.80;99.90;;;;;;4991014;28;20562;-80
2022/08/08 07:04:15;;;;;;;9.60;4.13;;;16.80;99.90;;;;;;5011124;28;20414;-80
2022/08/08 07:06:49;;;;;;;6.10;3.55;;;16.90;99.90;;;;;;4995234;28;20045;-80
2022/08/08 07:09:18;;;;;;;9.15;4.28;;;17.00;99.90;;;;;;4999477;28;20038;-79
2022/08/08 07:11:49;;;;;;;8.38;3.83;;;17.10;99.90;;;;;;4994739;28;20199;-80
2022/08/08 07:14:30;;;;;;;6.50;4.10;;;17.20;99.90;;;;;;5006422;28;20050;-80
2022/08/08 07:17:03;;;;;;;7.43;3.17;;;17.20;99.90;;;;;;5006099;28;20536;-79
2022/08/08 07:19:50;;;;;;;9.23;2.97;;;17.30;99.90;;;;;;5011113;28;20413;-80
2022/08/08 07:22:26;;;;;;;6.88;3.80;;;17.40;99.90;;;;;;5009231;28;20382;-80
2022/08/08 07:25:02;;;;;;;10.55;4.15;;;17.50;99.90;;;;;;5001082;28;20057;-79
2022/08/08 07:27:39;;;;;;;8.00;3.25;;;17.60;99.90;;;;;;4997615;28;20054;-79
2022/08/08 07:30:06;;;;;;;6.70;3.47;;;17.70;99.90;;;;;;5011474;28;20048;-80
2022/08/08 07:32:32;;;;;;;8.48;3.78;;;17.80;99.90;;;;;;5017945;28;20041;-79
2022/08/08 07:35:03;;;;;;;7.80;3.55;;;17.80;99.90;;;;;;4997120;28;20049;-79
2022/08/08 07:37:30;;;;;;;5.82;3.05;;;18.00;99.90;;;;;;5009874;28;20144;-79
2022/08/08 07:39:57;;;;;;;8.52;3.45;;;18.10;99.90;;;;;;5012850;28;20146;-80
2022/08/08 07:42:27;;;;;;;10.43;3.95;;;18.20;99.90;;;;;;5009372;28;20434;-79
2022/08/08 07:44:53;;;;;;;7.97;2.92;;;18.30;99.90;;;;;;5011029;28;20129;-80
2022/08/08 07:47:19;;;;;;;9.15;3.25;;;18.40;99.90;;;;;;4988318;28;20152;-80
2022/08/08 07:49:45;;;;;;;8.20;2.80;;;18.60;99.90;;;;;;5003674;28;20376;-78
2022/08/08 07:52:12;;;;;;;6.40;2.58;;;18.80;99.90;;;;;;4996536;28;20296;-78
2022/08/08 07:55:01;;;;;;;7.28;2.55;;;18.90;99.90;;;;;;5013696;28;20033;-78
2022/08/08 07:57:51;;;;;;;6.03;2.70;;;19.10;99.90;;;;;;5012668;28;20061;-78
2022/08/08 08:00:17;;;;;;;6.60;2.47;;;19.30;99.90;;;;;;5010550;28;20481;-77
2022/08/08 08:02:46;;;;;;;4.78;2.13;;;19.40;99.90;;;;;;5013352;28;20056;-77
2022/08/08 08:05:23;;;;;;;8.38;2.15;;;19.50;99.90;;;;;;5005826;28;20057;-78
2022/08/08 08:07:56;;;;;;;9.77;3.03;;;19.60;99.90;;;;;;5007940;28;20144;-77
2022/08/08 08:10:26;;;;;;;6.95;2.15;;;19.70;99.90;;;;;;5013456;28;20575;-79
2022/08/08 08:13:23;;;;;;;5.78;1.92;;;19.70;99.90;;;;;;5010818;28;20042;-79
2022/08/08 08:16:02;;;;;;;5.18;1.92;;;19.70;99.90;;;;;;5015189;28;20045;-78
2022/08/08 08:18:42;;;;;;;5.70;2.00;;;19.70;99.90;;;;;;5021597;28;20511;-78
2022/08/08 08:21:08;;;;;;;;;;;19.80;99.90;;;;;;5009474;28;20057;-79
2022/08/08 08:23:35;;;;;;;6.38;1.90;;;19.90;99.90;;;;;;5007378;28;20336;-77
2022/08/08 08:26:01;;;;;;;6.85;1.92;;;19.80;99.90;;;;;;4990720;28;20159;-78
2022/08/08 08:28:27;;;;;;;4.70;1.75;;;19.70;99.90;;;;;;5006642;28;20129;-78
2022/08/08 08:30:54;;;;;;;5.78;1.75;;;19.70;99.90;;;;;;4974590;28;20049;-78
2022/08/08 08:33:20;;;;;;;7.93;2.05;;;19.80;99.90;;;;;;5020015;28;20037;-79
2022/08/08 08:35:47;;;;;;;4.75;1.95;;;19.90;99.90;;;;;;5013820;28;20046;-79
2022/08/08 08:38:16;;;;;;;4.20;1.60;;;19.90;99.90;;;;;;4988927;28;20045;-79
2022/08/08 08:40:42;;;;;;;5.32;1.42;;;19.80;99.90;;;;;;5017539;28;20508;-79
2022/08/08 08:43:09;;;;;;;3.33;1.13;;;19.90;99.90;;;;;;5015961;28;20061;-79
2022/08/08 08:45:36;;;;;;;3.05;1.23;;;20.00;99.90;;;;;;5012430;28;20038;-79
2022/08/08 08:48:05;;;;;;;5.55;1.20;;;20.00;99.90;;;;;;5008567;28;20050;-79
2022/08/08 08:50:33;;;;;;;5.17;1.97;;;20.00;99.90;;;;;;4994776;28;20049;-79
2022/08/08 08:53:07;;;;;;;4.55;1.33;;;20.10;99.90;;;;;;5000972;28;20045;-79
2022/08/08 08:55:38;;;;;;;5.72;1.25;;;20.20;99.90;;;;;;5013162;28;20128;-78
2022/08/08 08:58:09;;;;;;;3.70;1.20;;;20.60;99.90;;;;;;5013853;28;20053;-78
2022/08/08 09:00:36;;;;;;;3.85;1.20;;;20.80;99.90;;;;;;5009997;28;20049;-78
2022/08/08 09:03:06;;;;;;;6.28;1.77;;;20.80;99.90;;;;;;5012850;28;20520;-78
2022/08/08 09:05:37;;;;;;;4.15;1.38;;;20.80;99.90;;;;;;5016815;28;20075;-79
2022/08/08 09:08:07;;;;;;;3.60;1.50;;;20.90;99.90;;;;;;4981422;28;20298;-78
2022/08/08 09:10:38;;;;;;;4.38;1.27;;;21.00;99.90;;;;;;5010843;28;20065;-79
2022/08/08 09:13:08;;;;;;;5.25;1.25;;;21.20;99.90;;;;;;5012047;28;20105;-78
2022/08/08 09:15:34;;;;;;;2.75;0.93;;;21.20;99.90;;;;;;5008921;28;20042;-78
2022/08/08 09:18:00;;;;;;;4.20;1.23;;;21.40;99.90;;;;;;4992936;28;20061;-78
2022/08/08 09:20:26;;;;;;;3.90;1.48;;;21.50;99.90;;;;;;4991151;28;20045;-77
2022/08/08 09:22:53;;;;;;;4.50;1.30;;;21.80;99.90;;;;;;4987440;28;20049;-77
2022/08/08 09:25:19;;;;;;;7.18;1.45;;;22.00;99.90;;;;;;4992109;28;20160;-77
2022/08/08 09:27:47;;;;;;;3.85;1.30;;;22.10;99.90;;;;;;5004998;28;20049;-77
2022/08/08 09:30:16;;;;;;;5.07;1.15;;;22.00;99.90;;;;;;5009518;28;20766;-77
2022/08/08 09:32:46;;;;;;;3.53;1.40;;;21.90;99.90;;;;;;5016223;28;20397;-78
2022/08/08 09:35:18;;;;;;;5.85;1.40;;;21.80;99.90;;;;;;5007571;28;20123;-78
2022/08/08 09:37:48;;;;;;;4.35;1.45;;;21.60;99.90;;;;;;5022201;28;20045;-78
2022/08/08 09:40:21;;;;;;;5.35;1.15;;;21.40;99.90;;;;;;5024960;28;20404;-78
2022/08/08 09:43:14;;;;;;;4.65;1.38;;;21.30;99.90;;;;;;5009551;28;20512;-78
2022/08/08 09:46:00;;;;;;;3.90;1.40;;;21.20;99.90;;;;;;5012406;28;20053;-78
2022/08/08 09:48:30;;;;;;;4.63;0.95;;;21.20;99.90;;;;;;5011730;28;20077;-78
2022/08/08 09:50:57;;;;;;;2.85;1.00;;;21.10;99.90;;;;;;5009137;28;20411;-78
2022/08/08 09:53:42;;;;;;;4.38;1.10;;;21.10;99.90;;;;;;5003074;28;20048;-78
2022/08/08 09:56:11;;;;;;;2.65;1.10;;;21.10;99.90;;;;;;5010203;28;20515;-78
2022/08/08 09:58:39;;;;;;;3.65;1.30;;;21.20;99.90;;;;;;5009519;28;20552;-78
2022/08/08 10:01:09;;;;;;;3.50;1.23;;;21.40;99.90;;;;;;5011771;28;20042;-78
2022/08/08 10:03:36;;;;;;;4.18;1.50;;;21.50;99.90;;;;;;4989909;28;21421;-77
2022/08/08 10:06:16;;;;;;;3.20;0.90;;;21.70;99.90;;;;;;5001928;28;20053;-77
2022/08/08 10:08:43;;;;;;;;;;;22.10;99.90;;;;;;5013623;28;20334;-76
2022/08/08 10:11:09;;;;;;;3.78;0.80;;;22.40;99.90;;;;;;5008125;28;19936;-77
2022/08/08 10:13:35;;;;;;;3.78;0.68;;;22.50;99.90;;;;;;4996884;28;20050;-76
2022/08/08 10:16:02;;;;;;;2.63;0.77;;;22.40;97.50;;;;;;4998239;28;20408;-77
2022/08/08 10:18:32;;;;;;;2.67;0.73;;;22.30;97.40;;;;;;5014866;28;20045;-77
2022/08/08 10:21:04;;;;;;;2.67;0.75;;;22.20;97.80;;;;;;5010045;28;20053;-77
2022/08/08 10:23:33;;;;;;;3.97;0.90;;;22.00;95.10;;;;;;5018906;28;20057;-77
2022/08/08 10:26:03;;;;;;;2.28;0.70;;;21.90;96.80;;;;;;5015339;28;20096;-76
2022/08/08 10:28:31;;;;;;;2.63;0.70;;;21.70;97.80;;;;;;5009082;28;20054;-77
2022/08/08 10:30:58;;;;;;;3.40;0.70;;;21.70;98.90;;;;;;5010117;28;20052;-77
2022/08/08 10:33:32;;;;;;;2.25;0.70;;;21.60;99.90;;;;;;5013573;28;20129;-76
2022/08/08 10:36:03;;;;;;;2.90;1.08;;;21.60;99.90;;;;;;5013970;28;20540;-76
2022/08/08 10:38:30;;;;;;;3.53;0.85;;;21.60;99.90;;;;;;5013917;28;20658;-76
2022/08/08 10:41:02;;;;;;;3.38;0.90;;;21.50;99.90;;;;;;4976875;28;20509;-77
2022/08/08 10:43:38;;;;;;;1.65;0.70;;;21.40;99.90;;;;;;5025248;28;20058;-77
2022/08/08 10:46:24;;;;;;;2.92;0.88;;;21.30;99.90;;;;;;5013936;28;20085;-77
2022/08/08 10:48:54;;;;;;;2.92;0.80;;;21.30;99.90;;;;;;5015927;28;20089;-77
2022/08/08 10:51:29;;;;;;;7.07;1.38;;;21.30;99.90;;;;;;5012204;28;20121;-77
2022/08/08 10:53:55;;;;;;;2.97;1.23;;;21.30;99.90;;;;;;5011356;28;20073;-76
2022/08/08 10:56:25;;;;;;;3.67;1.00;;;21.30;99.90;;;;;;5008240;28;20045;-77
2022/08/08 10:58:58;;;;;;;2.90;1.20;;;21.30;99.90;;;;;;5018646;28;20446;-76
2022/08/08 11:01:28;;;;;;;4.00;0.95;;;21.30;99.90;;;;;;5015648;28;21195;-78
2022/08/08 11:03:58;;;;;;;5.65;1.10;;;21.30;99.90;;;;;;5016997;28;20133;-76
2022/08/08 11:06:35;;;;;;;2.78;0.80;;;21.30;99.90;;;;;;5012161;28;20083;-77
2022/08/08 11:09:06;;;;;;;2.85;1.02;;;21.30;99.90;;;;;;4992762;28;20045;-78
2022/08/08 11:11:40;;;;;;;2.45;0.98;;;21.30;99.90;;;;;;5016829;28;20045;-77
2022/08/08 11:14:07;;;;;;;2.15;0.80;;;21.30;99.90;;;;;;5024747;28;20184;-77
2022/08/08 11:16:35;;;;;;;3.00;1.00;;;21.30;99.90;;;;;;5006443;28;20045;-77
2022/08/08 11:19:03;;;;;;;3.50;0.63;;;21.40;98.80;;;;;;5035534;28;20061;-78
2022/08/08 11:21:33;;;;;;;3.55;0.75;;;21.40;99.30;;;;;;5012795;28;20038;-79
2022/08/08 11:24:03;;;;;;;5.57;0.95;;;21.40;99.20;;;;;;5006022;28;20057;-77
2022/08/08 11:26:32;;;;;;;5.07;1.00;;;21.50;99.90;;;;;;5014318;28;20050;-78
2022/08/08 11:29:03;;;;;;;1.55;0.88;;;21.60;99.50;;;;;;5018082;28;20060;-78
2022/08/08 11:31:38;;;;;;;3.40;0.85;;;21.70;99.80;;;;;;5010975;28;20053;-78
2022/08/08 11:34:05;;;;;;;3.03;1.23;;;21.70;99.90;;;;;;5013526;28;20038;-77
2022/08/08 11:36:32;;;;;;;2.90;0.90;;;21.70;99.90;;;;;;5014693;28;20076;-77
2022/08/08 11:38:58;;;;;;;2.38;0.80;;;21.80;99.90;;;;;;5016024;28;20305;-76
2022/08/08 11:41:26;;;;;;;4.55;1.20;;;21.80;99.90;;;;;;5013679;28;20695;-77
2022/08/08 11:43:54;;;;;;;2.20;0.90;;;21.90;99.60;;;;;;5012844;28;20045;-77
2022/08/08 11:46:24;;;;;;;3.50;1.00;;;21.90;99.40;;;;;;4999313;28;20049;-77
2022/08/08 11:48:52;;;;;;;1.85;0.90;;;21.90;99.90;;;;;;5010640;28;20041;-78
2022/08/08 11:51:21;;;;;;;4.53;1.15;;;22.00;99.90;;;;;;4999083;28;20068;-77
2022/08/08 11:53:48;;;;;;;3.40;0.90;;;22.10;99.90;;;;;;4988809;28;20567;-78
2022/08/08 11:56:22;;;;;;;3.03;1.10;;;22.20;99.90;;;;;;5012890;28;20085;-78
2022/08/08 11:58:50;;;;;;;4.75;1.10;;;22.20;99.50;;;;;;5003656;28;20242;-76
2022/08/08 12:01:16;;;;;;;3.17;1.05;;;22.20;99.90;;;;;;5008796;28;20049;-79
2022/08/08 12:03:47;;;;;;;3.00;0.93;;;22.10;99.50;;;;;;5005606;28;20049;-76
2022/08/08 12:06:17;;;;;;;2.40;0.82;;;22.00;99.10;;;;;;5011606;28;20379;-74
2022/08/08 12:08:44;;;;;;;2.70;1.02;;;22.00;99.50;;;;;;5014808;28;20289;-76
2022/08/08 12:11:12;;;;;;;2.55;1.10;;;21.90;99.90;;;;;;5011977;28;20056;-76
2022/08/08 12:13:38;;;;;;;2.63;0.82;;;21.90;99.90;;;;;;5006666;28;20040;-75
2022/08/08 12:16:18;;;;;;;6.35;1.08;;;21.90;99.90;;;;;;5006995;28;20468;-76
2022/08/08 12:18:53;;;;;;;3.58;1.10;;;21.90;99.90;;;;;;5016415;28;20062;-76
2022/08/08 12:21:30;;;;;;;5.43;1.13;;;21.80;99.90;;;;;;5011440;28;20045;-76
2022/08/08 12:24:12;;;;;;;3.30;0.95;;;21.80;99.90;;;;;;5006793;28;20622;-76
2022/08/08 12:26:46;;;;;;;5.10;1.30;;;21.80;99.90;;;;;;5016360;28;20041;-78
2022/08/08 12:29:27;;;;;;;2.58;1.15;;;21.80;99.90;;;;;;5011366;28;20060;-76
2022/08/08 12:32:05;;;;;;;3.28;1.05;;;21.70;99.90;;;;;;5019373;28;20479;-76
2022/08/08 12:34:41;;;;;;;3.63;1.17;;;21.70;99.90;;;;;;5029583;28;20333;-76
2022/08/08 12:37:19;;;;;;;4.75;1.38;;;21.60;99.90;;;;;;5009946;28;20058;-77
2022/08/08 12:39:48;;;;;;;3.25;1.13;;;21.50;99.90;;;;;;5005472;28;20054;-77
2022/08/08 12:42:14;;;;;;;3.17;1.00;;;21.40;99.90;;;;;;5014214;28;20113;-76
2022/08/08 12:44:44;;;;;;;3.13;1.10;;;21.30;99.90;;;;;;5000225;28;20148;-76
2022/08/08 12:47:11;;;;;;;2.50;1.10;;;21.30;99.90;;;;;;5014964;28;20417;-77
2022/08/08 12:49:38;;;;;;;3.17;1.20;;;21.30;99.90;;;;;;5007752;28;20061;-76
2022/08/08 12:52:05;;;;;;;4.20;0.90;;;21.30;99.90;;;;;;5004121;28;20671;-77
2022/08/08 12:54:35;;;;;;;4.03;1.20;;;21.40;99.90;;;;;;5014730;28;20044;-77
2022/08/08 12:57:12;;;;;;;2.63;0.95;;;21.40;99.90;;;;;;5018067;28;20045;-80
2022/08/08 12:59:53;;;;;;;4.70;1.30;;;21.40;99.90;;;;;;5002024;28;20041;-78
2022/08/08 13:02:32;;;;;;;3.97;1.10;;;21.40;99.90;;;;;;5001059;28;20037;-76
2022/08/08 13:05:03;;;;;;;;;;;21.40;99.90;;;;;;5011300;28;20057;-76
2022/08/08 13:07:37;;;;;;;4.03;1.20;;;21.40;99.90;;;;;;5018282;28;20277;-79
2022/08/08 13:10:12;;;;;;;3.45;1.08;;;21.40;99.90;;;;;;4988650;28;20140;-77
2022/08/08 13:12:43;;;;;;;3.55;1.40;;;21.50;99.90;;;;;;5014254;28;20073;-77
2022/08/08 13:15:21;;;;;;;4.50;1.48;;;21.50;99.90;;;;;;4987859;28;20054;-78
2022/08/08 13:17:50;;;;;;;2.60;1.17;;;21.50;99.90;;;;;;5029382;28;20103;-77
2022/08/08 13:20:19;;;;;;;3.60;1.00;;;21.50;99.90;;;;;;5000248;28;20062;-76
2022/08/08 13:22:45;;;;;;;2.70;0.90;;;21.50;99.90;;;;;;5004460;28;20132;-76
2022/08/08 13:25:20;;;;;;;3.25;1.00;;;21.50;99.90;;;;;;5006744;28;20053;-77
2022/08/08 13:27:53;;;;;;;3.08;0.90;;;21.60;99.90;;;;;;5015177;28;20045;-76